createdAt,value
2022-10-08T00:04:01.137Z,10
2022-10-08T00:14:07.783Z,11
2022-10-08T00:24:14.116Z,9
2022-10-08T00:34:18.682Z,11
2022-10-08T00:44:24.712Z,9
2022-10-08T00:54:30.656Z,9
2022-10-08T01:04:37.391Z,11
2022-10-08T01:14:44.608Z,9
2022-10-08T01:24:49.321Z,13
2022-10-08T01:34:53.630Z,12
2022-10-08T01:44:58.892Z,11
2022-10-08T01:55:06.417Z,10
2022-10-08T02:05:11.759Z,8
2022-10-08T02:15:18.889Z,12
2022-10-08T02:25:23.996Z,10
2022-10-08T02:35:31.509Z,10
2022-10-08T02:45:38.415Z,9
2022-10-08T02:55:43.383Z,16
2022-10-08T03:05:49.337Z,17
2022-10-08T03:15:55.862Z,18
2022-10-08T03:26:01.553Z,20
2022-10-08T03:36:08.024Z,13
2022-10-08T03:46:14.839Z,9
2022-10-08T03:56:20.270Z,14
2022-10-08T04:06:25.856Z,11
2022-10-08T04:16:30.760Z,10
2022-10-08T04:26:34.499Z,10
2022-10-08T04:36:47.023Z,10
2022-10-08T04:46:49.008Z,12
2022-10-08T04:56:53.844Z,9
2022-10-08T05:06:59.783Z,9
2022-10-08T05:17:07.408Z,9
2022-10-08T05:27:40.562Z,7
2022-10-08T05:37:34.137Z,7
2022-10-08T05:47:41.255Z,10
2022-10-08T05:57:47.634Z,8
2022-10-08T06:07:53.594Z,9
2022-10-08T06:18:00.159Z,8
2022-10-08T06:28:05.109Z,9
2022-10-08T06:38:11.291Z,7
2022-10-08T06:48:17.175Z,9
2022-10-08T06:58:23.104Z,9
2022-10-08T07:08:28.399Z,8
2022-10-08T07:18:35.716Z,7
2022-10-08T07:28:41.488Z,8
2022-10-08T07:38:47.147Z,8
2022-10-08T07:48:53.288Z,8
2022-10-08T07:58:58.615Z,8
2022-10-08T08:09:04.345Z,9
2022-10-08T08:19:09.588Z,10
2022-10-08T08:29:16.141Z,9
2022-10-08T08:39:22.221Z,6
2022-10-08T08:49:29.767Z,7
2022-10-08T08:59:35.196Z,7
2022-10-08T09:09:41.533Z,7
2022-10-08T09:19:49.006Z,8
2022-10-08T09:29:54.726Z,8
2022-10-08T09:39:59.060Z,11
2022-10-08T09:50:06.640Z,7
2022-10-08T10:00:13.922Z,9
2022-10-08T10:10:18.887Z,9
2022-10-08T10:30:31.629Z,8
2022-10-08T10:40:38.862Z,11
2022-10-08T10:50:44.657Z,9
2022-10-08T11:00:50.952Z,10
2022-10-08T11:10:57.815Z,7
2022-10-08T11:21:04.007Z,8
2022-10-08T11:31:09.687Z,10
2022-10-08T11:51:22.264Z,13
2022-10-08T12:11:34.213Z,17
2022-10-08T12:21:41.118Z,14
2022-10-08T12:31:49.550Z,14
2022-10-08T12:41:51.526Z,16
2022-10-08T13:12:07.494Z,14
2022-10-08T13:32:18.222Z,12
2022-10-08T13:42:28.162Z,12
2022-10-08T13:52:30.348Z,11
2022-10-08T14:02:38.236Z,11
2022-10-08T14:22:51.495Z,13
2022-10-08T14:32:56.977Z,14
2022-10-08T14:43:02.667Z,18
2022-10-08T14:53:14.420Z,18
2022-10-08T15:03:15.527Z,17
2022-10-08T15:13:21.863Z,19
2022-10-08T15:23:27.373Z,18
2022-10-08T15:33:32.503Z,23
2022-10-08T15:43:37.536Z,13
2022-10-08T15:53:44.322Z,15
2022-10-08T16:03:49.055Z,16
2022-10-08T16:13:56.370Z,17
2022-10-08T16:24:03.604Z,18
2022-10-08T16:34:08.487Z,15
2022-10-08T16:44:15.351Z,18
2022-10-08T16:54:21.008Z,18
2022-10-08T17:04:27.056Z,14
2022-10-08T17:14:34.710Z,14
2022-10-08T17:24:42.326Z,20
2022-10-08T17:34:45.609Z,16
2022-10-08T17:44:51.124Z,18
2022-10-08T17:54:57.857Z,18
2022-10-08T18:05:04.777Z,16
2022-10-08T18:15:11.193Z,15
2022-10-08T18:25:16.556Z,21
2022-10-08T18:35:22.498Z,21
2022-10-08T18:45:30.924Z,19
2022-10-08T18:55:37.204Z,18
2022-10-08T19:05:42.081Z,20
2022-10-08T19:15:47.448Z,23
2022-10-08T19:25:52.039Z,22
2022-10-08T19:35:58.533Z,20
2022-10-08T19:46:04.440Z,20
2022-10-08T19:56:10.471Z,22
2022-10-08T20:06:21.831Z,23
2022-10-08T20:16:27.189Z,18
2022-10-08T20:26:31.211Z,16
2022-10-08T20:36:38.154Z,13
2022-10-08T20:46:46.018Z,14
2022-10-08T20:56:52.367Z,15
2022-10-08T21:06:58.857Z,14
2022-10-08T21:17:05.966Z,16
2022-10-08T21:27:12.201Z,17
2022-10-08T21:37:19.338Z,15
2022-10-08T21:47:25.539Z,15
2022-10-08T21:57:31.606Z,13
2022-10-08T22:07:38.111Z,17
2022-10-08T22:17:43.488Z,13
2022-10-08T22:27:50.021Z,14
2022-10-08T22:37:56.426Z,14
2022-10-08T22:48:01.750Z,12
2022-10-08T22:58:08.319Z,12
2022-10-08T23:08:12.053Z,13
2022-10-08T23:18:19.178Z,11
2022-10-08T23:28:23.699Z,13
2022-10-08T23:38:29.908Z,12
2022-10-08T23:48:37.080Z,9
2022-10-08T23:58:42.490Z,8
